Time;durP1;ratioP1;P1;durP2;ratioP2;P2;SDS_P1;SDS_P2;PMS_P1;PMS_P2;Temp;Humidity;BMP_temperature;BMP_pressure;BME280_temperature;BME280_humidity;BME280_pressure;Samples;Min_cycle;Max_cycle;Signal;HPM_P1;HPM_P2
2023/04/21 00:00:30;;;;;;;;;;;;;;;;;;5049870;28;19964;-58
2023/04/21 00:02:56;;;;;;;;;;;;;;;;;;5052182;28;19913;-59
2023/04/21 00:05:22;;;;;;;;;;;;;;;;;;5051780;28;20327;-58
2023/04/21 00:07:48;;;;;;;;;;;;;;;;;;5052820;28;19944;-58
2023/04/21 00:10:14;;;;;;;;;;;;;;;;;;5051885;28;20372;-58
2023/04/21 00:12:40;;;;;;;;;;;;;;;;;;5056711;28;20005;-58
2023/04/21 00:15:06;;;;;;;;;;;;;;;;;;5051983;28;19917;-58
2023/04/21 00:17:32;;;;;;;;;;;;;;;;;;5051863;28;19917;-58
2023/04/21 00:19:57;;;;;;;;;;;;;;;;;;5048956;28;19913;-59
2023/04/21 00:22:23;;;;;;;;;;;;;;;;;;5052141;28;19995;-58
2023/04/21 00:24:49;;;;;;;;;;;;;;;;;;5051689;28;20355;-59
2023/04/21 00:27:15;;;;;;;;;;;;;;;;;;5052009;28;19916;-59
2023/04/21 00:29:41;;;;;;;;;;;;;;;;;;5050903;28;19981;-58
2023/04/21 00:32:08;;;;;;;;;;;;;;;;;;5051486;28;19916;-59
2023/04/21 00:34:34;;;;;;;;;;;;;;;;;;5050691;28;19913;-59
2023/04/21 00:37:00;;;;;;;;;;;;;;;;;;5050621;28;19963;-59
2023/04/21 00:39:26;;;;;;;;;;;;;;;;;;5051957;28;19913;-59
2023/04/21 00:41:52;;;;;;;;;;;;;;;;;;5052106;28;19948;-58
2023/04/21 00:44:18;;;;;;;;;;;;;;;;;;5051526;28;19909;-59
2023/04/21 00:46:44;;;;;;;;;;;;;;;;;;5049626;28;20007;-58
2023/04/21 00:49:12;;;;;;;;;;;;;;;;;;5065085;28;20304;-58
2023/04/21 00:51:37;;;;;;;;;;;;;;;;;;5051458;28;19916;-59
2023/04/21 00:54:04;;;;;;;;;;;;;;;;;;5051270;28;19913;-58
2023/04/21 00:56:30;;;;;;;;;;;;;;;;;;5037766;28;19997;-58
2023/04/21 00:58:56;;;;;;;;;;;;;;;;;;5055739;28;19974;-59
2023/04/21 01:01:21;;;;;;;;;;;;;;;;;;5049229;28;20456;-58
2023/04/21 01:03:49;;;;;;;;;;;;;;;;;;5054095;28;19920;-58
2023/04/21 01:06:14;;;;;;;;;;;;;;;;;;5055554;28;19967;-58
2023/04/21 01:08:40;;;;;;;;;;;;;;;;;;5054421;28;20427;-58
2023/04/21 01:11:06;;;;;;;;;;;;;;;;;;5066379;28;20411;-58
2023/04/21 01:13:32;;;;;;;;;;;;;;;;;;5067471;28;20007;-58
2023/04/21 01:15:58;;;;;;;;;;;;;;;;;;5055734;28;20334;-58
2023/04/21 01:18:24;;;;;;;;;;;;;;;;;;5053655;28;19920;-58
2023/04/21 01:20:50;;;;;;;;;;;;;;;;;;5054107;28;19913;-58
2023/04/21 01:23:17;;;;;;;;;;;;;;;;;;5053076;28;20515;-58
2023/04/21 01:25:43;;;;;;;;;;;;;;;;;;5054016;28;19960;-58
2023/04/21 01:28:09;;;;;;;;;;;;;;;;;;5054558;28;20388;-58
2023/04/21 01:30:35;;;;;;;;;;;;;;;;;;5054210;28;19956;-58
2023/04/21 01:33:01;;;;;;;;;;;;;;;;;;5055116;28;19955;-58
2023/04/21 01:35:27;;;;;;;;;;;;;;;;;;5054871;28;20365;-58
2023/04/21 01:37:53;;;;;;;;;;;;;;;;;;5057041;28;20344;-58
2023/04/21 01:40:19;;;;;;;;;;;;;;;;;;5053290;28;20011;-58
2023/04/21 01:42:45;;;;;;;;;;;;;;;;;;5056018;28;19959;-59
2023/04/21 01:45:11;;;;;;;;;;;;;;;;;;5056657;28;19956;-58
2023/04/21 01:47:37;;;;;;;;;;;;;;;;;;5056462;28;20402;-58
2023/04/21 01:50:03;;;;;;;;;;;;;;;;;;5053974;28;20382;-58
2023/04/21 01:52:29;;;;;;;;;;;;;;;;;;5056732;28;20058;-58
2023/04/21 01:54:55;;;;;;;;;;;;;;;;;;5054492;28;19909;-58
2023/04/21 01:57:21;;;;;;;;;;;;;;;;;;5052112;28;19964;-58
2023/04/21 01:59:48;;;;;;;;;;;;;;;;;;5054049;28;19970;-58
2023/04/21 02:02:14;;;;;;;;;;;;;;;;;;5054098;28;19916;-58
2023/04/21 02:04:40;;;;;;;;;;;;;;;;;;5053382;28;19913;-58
2023/04/21 02:07:06;;;;;;;;;;;;;;;;;;5054426;28;20359;-58
2023/04/21 02:09:32;;;;;;;;;;;;;;;;;;5051219;28;19913;-58
2023/04/21 02:11:57;;;;;;;;;;;;;;;;;;5051760;28;19996;-58
2023/04/21 02:14:23;;;;;;;;;;;;;;;;;;5054328;28;19912;-58
2023/04/21 02:16:49;;;;;;;;;;;;;;;;;;5054039;28;19964;-58
2023/04/21 02:19:15;;;;;;;;;;;;;;;;;;5052505;28;19924;-58
2023/04/21 02:21:41;;;;;;;;;;;;;;;;;;5052860;28;19993;-58
2023/04/21 02:24:07;;;;;;;;;;;;;;;;;;5051682;28;20003;-58
2023/04/21 02:26:33;;;;;;;;;;;;;;;;;;5052175;28;19998;-58
2023/04/21 02:28:59;;;;;;;;;;;;;;;;;;5052037;28;19960;-58
2023/04/21 02:31:25;;;;;;;;;;;;;;;;;;5053009;28;20391;-58
2023/04/21 02:33:51;;;;;;;;;;;;;;;;;;5050909;28;19919;-58
2023/04/21 02:36:17;;;;;;;;;;;;;;;;;;5052586;28;20292;-58
2023/04/21 02:38:43;;;;;;;;;;;;;;;;;;5051867;28;20412;-58
2023/04/21 02:41:09;;;;;;;;;;;;;;;;;;5052497;28;20011;-58
2023/04/21 02:43:35;;;;;;;;;;;;;;;;;;5052398;28;19913;-58
2023/04/21 02:46:01;;;;;;;;;;;;;;;;;;5050878;28;19919;-59
2023/04/21 02:48:27;;;;;;;;;;;;;;;;;;5053028;28;19909;-58
2023/04/21 02:50:53;;;;;;;;;;;;;;;;;;5055895;28;20437;-58
2023/04/21 02:53:19;;;;;;;;;;;;;;;;;;5050980;28;19948;-58
2023/04/21 02:55:45;;;;;;;;;;;;;;;;;;5052335;28;19917;-58
2023/04/21 02:58:10;;;;;;;;;;;;;;;;;;5050235;28;19956;-59
2023/04/21 03:00:36;;;;;;;;;;;;;;;;;;5052063;28;19916;-58
2023/04/21 03:03:02;;;;;;;;;;;;;;;;;;5046923;28;19913;-58
2023/04/21 03:05:28;;;;;;;;;;;;;;;;;;5051953;28;19956;-58
2023/04/21 03:07:54;;;;;;;;;;;;;;;;;;5052711;28;19917;-58
2023/04/21 03:10:20;;;;;;;;;;;;;;;;;;5050056;28;20002;-59
2023/04/21 03:12:46;;;;;;;;;;;;;;;;;;5054955;28;20392;-58
2023/04/21 03:15:13;;;;;;;;;;;;;;;;;;5052962;28;20011;-58
2023/04/21 03:17:39;;;;;;;;;;;;;;;;;;5051718;28;19920;-58
2023/04/21 03:20:06;;;;;;;;;;;;;;;;;;5050027;28;20371;-58
2023/04/21 03:22:32;;;;;;;;;;;;;;;;;;5052030;28;20372;-58
2023/04/21 03:24:58;;;;;;;;;;;;;;;;;;5052045;28;19962;-59
2023/04/21 03:27:24;;;;;;;;;;;;;;;;;;5050938;28;19952;-58
2023/04/21 03:29:50;;;;;;;;;;;;;;;;;;5050747;28;20380;-58
2023/04/21 03:32:16;;;;;;;;;;;;;;;;;;5050988;28;20391;-58
2023/04/21 03:34:42;;;;;;;;;;;;;;;;;;5052024;28;19912;-58
2023/04/21 03:37:08;;;;;;;;;;;;;;;;;;5049842;28;19963;-58
2023/04/21 03:39:34;;;;;;;;;;;;;;;;;;5052513;28;20035;-58
2023/04/21 03:42:00;;;;;;;;;;;;;;;;;;5050167;28;20011;-58
2023/04/21 03:44:27;;;;;;;;;;;;;;;;;;5050282;28;20311;-59
2023/04/21 03:46:53;;;;;;;;;;;;;;;;;;5048574;28;19921;-58
2023/04/21 03:49:19;;;;;;;;;;;;;;;;;;5050970;28;19978;-58
2023/04/21 03:51:45;;;;;;;;;;;;;;;;;;5051229;28;19921;-58
2023/04/21 03:54:11;;;;;;;;;;;;;;;;;;5055052;28;20246;-58
2023/04/21 03:56:37;;;;;;;;;;;;;;;;;;5051513;28;19919;-58
2023/04/21 03:59:03;;;;;;;;;;;;;;;;;;5053148;28;20007;-58
2023/04/21 04:01:29;;;;;;;;;;;;;;;;;;5055336;28;19966;-58
2023/04/21 04:03:55;;;;;;;;;;;;;;;;;;5031562;28;20466;-58
2023/04/21 04:06:21;;;;;;;;;;;;;;;;;;5049829;28;19948;-58
2023/04/21 04:08:46;;;;;;;;;;;;;;;;;;5053970;28;19917;-58
2023/04/21 04:11:12;;;;;;;;;;;;;;;;;;5048069;28;19923;-58
2023/04/21 04:13:38;;;;;;;;;;;;;;;;;;5050711;28;19909;-58
2023/04/21 04:16:04;;;;;;;;;;;;;;;;;;5052607;28;20391;-58
2023/04/21 04:18:30;;;;;;;;;;;;;;;;;;5059191;28;19913;-58
2023/04/21 04:20:56;;;;;;;;;;;;;;;;;;5048762;28;20315;-59
2023/04/21 04:23:22;;;;;;;;;;;;;;;;;;5054746;28;19952;-58
2023/04/21 04:25:48;;;;;;;;;;;;;;;;;;5050721;28;19931;-58
2023/04/21 04:28:14;;;;;;;;;;;;;;;;;;5048718;28;19927;-58
2023/04/21 04:30:40;;;;;;;;;;;;;;;;;;5051484;28;19921;-58
2023/04/21 04:33:06;;;;;;;;;;;;;;;;;;5053575;28;19921;-58
2023/04/21 04:35:32;;;;;;;;;;;;;;;;;;5049467;28;19990;-58
2023/04/21 04:37:58;;;;;;;;;;;;;;;;;;5052423;28;19916;-58
2023/04/21 04:40:24;;;;;;;;;;;;;;;;;;5051674;28;19913;-58
2023/04/21 04:42:50;;;;;;;;;;;;;;;;;;5052479;28;20000;-58
2023/04/21 04:45:16;;;;;;;;;;;;;;;;;;5050528;28;19927;-58
2023/04/21 04:47:42;;;;;;;;;;;;;;;;;;5035349;28;19952;-59
2023/04/21 04:50:08;;;;;;;;;;;;;;;;;;5050500;28;19913;-59
2023/04/21 04:52:34;;;;;;;;;;;;;;;;;;5047412;28;20037;-58
2023/04/21 04:55:00;;;;;;;;;;;;;;;;;;5055158;28;19944;-58
2023/04/21 04:57:26;;;;;;;;;;;;;;;;;;5053236;28;19989;-58
2023/04/21 04:59:52;;;;;;;;;;;;;;;;;;5052016;28;19917;-59
2023/04/21 05:02:17;;;;;;;;;;;;;;;;;;5049585;28;19960;-59
2023/04/21 05:04:43;;;;;;;;;;;;;;;;;;5051433;28;20407;-58
2023/04/21 05:07:09;;;;;;;;;;;;;;;;;;5052633;28;19921;-58
2023/04/21 05:09:35;;;;;;;;;;;;;;;;;;5051306;28;21597;-58
2023/04/21 05:12:01;;;;;;;;;;;;;;;;;;5037750;28;19928;-58
2023/04/21 05:14:27;;;;;;;;;;;;;;;;;;5052213;28;19921;-58
2023/04/21 05:16:53;;;;;;;;;;;;;;;;;;5049285;28;19913;-58
2023/04/21 05:19:19;;;;;;;;;;;;;;;;;;5048182;28;19917;-58
2023/04/21 05:21:45;;;;;;;;;;;;;;;;;;5053157;28;20326;-59
2023/04/21 05:24:10;;;;;;;;;;;;;;;;;;5052942;28;20023;-58
2023/04/21 05:26:36;;;;;;;;;;;;;;;;;;5054546;28;19971;-58
2023/04/21 05:29:02;;;;;;;;;;;;;;;;;;5051303;28;19921;-58
2023/04/21 05:31:28;;;;;;;;;;;;;;;;;;5061448;28;19981;-58
2023/04/21 05:33:54;;;;;;;;;;;;;;;;;;5057789;28;19952;-58
2023/04/21 05:36:20;;;;;;;;;;;;;;;;;;5055408;28;20321;-58
2023/04/21 05:38:46;;;;;;;;;;;;;;;;;;5052333;28;20070;-58
2023/04/21 05:41:12;;;;;;;;;;;;;;;;;;5047700;28;19988;-58
2023/04/21 05:43:38;;;;;;;;;;;;;;;;;;5054088;28;20370;-58
2023/04/21 05:46:04;;;;;;;;;;;;;;;;;;5053532;28;19944;-58
2023/04/21 05:48:30;;;;;;;;;;;;;;;;;;5049928;28;20007;-58
2023/04/21 05:50:56;;;;;;;;;;;;;;;;;;5052190;28;19992;-58
2023/04/21 05:53:27;;;;;;;;;;;;;;;;;;5060130;28;20338;-58
2023/04/21 05:55:53;;;;;;;;;;;;;;;;;;5051606;28;19913;-58
2023/04/21 05:58:19;;;;;;;;;;;;;;;;;;5051118;28;20355;-58
2023/04/21 06:00:46;;;;;;;;;;;;;;;;;;5057408;28;19913;-58
2023/04/21 06:03:12;;;;;;;;;;;;;;;;;;5059811;28;20379;-58
2023/04/21 06:05:37;;;;;;;;;;;;;;;;;;5051660;28;19917;-58
2023/04/21 06:08:03;;;;;;;;;;;;;;;;;;5053388;28;19909;-58
2023/04/21 06:10:30;;;;;;;;;;;;;;;;;;5065408;28;19994;-58
2023/04/21 06:12:55;;;;;;;;;;;;;;;;;;5059301;28;19921;-58
2023/04/21 06:15:21;;;;;;;;;;;;;;;;;;5053001;28;20078;-58
2023/04/21 06:17:47;;;;;;;;;;;;;;;;;;5052741;28;19916;-58
2023/04/21 06:20:13;;;;;;;;;;;;;;;;;;5050545;28;19956;-59
2023/04/21 06:22:39;;;;;;;;;;;;;;;;;;5053050;28;19959;-58
2023/04/21 06:25:05;;;;;;;;;;;;;;;;;;5053008;28;20436;-58
2023/04/21 06:27:31;;;;;;;;;;;;;;;;;;5049864;28;20003;-58
2023/04/21 06:29:57;;;;;;;;;;;;;;;;;;5046990;28;19959;-58
2023/04/21 06:32:23;;;;;;;;;;;;;;;;;;5056399;28;19935;-58
2023/04/21 06:34:49;;;;;;;;;;;;;;;;;;5050129;28;19959;-58
2023/04/21 06:37:15;;;;;;;;;;;;;;;;;;5065687;28;19927;-59
2023/04/21 06:39:41;;;;;;;;;;;;;;;;;;5052642;28;19999;-59
2023/04/21 06:42:07;;;;;;;;;;;;;;;;;;5048196;28;19917;-58
2023/04/21 06:44:33;;;;;;;;;;;;;;;;;;5067943;28;19944;-59
2023/04/21 06:46:59;;;;;;;;;;;;;;;;;;5072394;28;20011;-59
2023/04/21 06:49:24;;;;;;;;;;;;;;;;;;5061311;28;19919;-59
2023/04/21 06:51:50;;;;;;;;;;;;;;;;;;5054096;28;19952;-59
2023/04/21 06:54:16;;;;;;;;;;;;;;;;;;5057539;28;20016;-59
2023/04/21 06:56:42;;;;;;;;;;;;;;;;;;5055385;28;20369;-59
2023/04/21 06:59:08;;;;;;;;;;;;;;;;;;5051902;28;20010;-58
2023/04/21 07:01:34;;;;;;;;;;;;;;;;;;5051600;28;19916;-59
2023/04/21 07:04:00;;;;;;;;;;;;;;;;;;5046643;28;20589;-57
2023/04/21 07:06:26;;;;;;;;;;;;;;;;;;5051855;28;20296;-59
2023/04/21 07:08:52;;;;;;;;;;;;;;;;;;5049857;28;19952;-59
2023/04/21 07:11:18;;;;;;;;;;;;;;;;;;5053699;28;19951;-58
2023/04/21 07:13:44;;;;;;;;;;;;;;;;;;5062312;28;19918;-59
2023/04/21 07:16:10;;;;;;;;;;;;;;;;;;5051592;28;19955;-58
2023/04/21 07:18:36;;;;;;;;;;;;;;;;;;5069915;28;19955;-58
2023/04/21 07:21:02;;;;;;;;;;;;;;;;;;5058538;28;19963;-59
2023/04/21 07:23:28;;;;;;;;;;;;;;;;;;5048134;28;20322;-58
2023/04/21 07:25:53;;;;;;;;;;;;;;;;;;5049191;28;20011;-59
2023/04/21 07:28:19;;;;;;;;;;;;;;;;;;5047302;28;19965;-58
2023/04/21 07:30:45;;;;;;;;;;;;;;;;;;5049512;28;20382;-58
2023/04/21 07:33:11;;;;;;;;;;;;;;;;;;5058274;28;19959;-58
2023/04/21 07:35:37;;;;;;;;;;;;;;;;;;5059947;28;20321;-59
2023/04/21 07:38:03;;;;;;;;;;;;;;;;;;5055090;28;19917;-59
2023/04/21 07:40:30;;;;;;;;;;;;;;;;;;5049199;28;19916;-59
2023/04/21 07:42:55;;;;;;;;;;;;;;;;;;5045420;28;20407;-59
2023/04/21 07:45:21;;;;;;;;;;;;;;;;;;5051828;28;20015;-59
2023/04/21 07:47:47;;;;;;;;;;;;;;;;;;5052856;28;19962;-59
2023/04/21 07:50:13;;;;;;;;;;;;;;;;;;5060832;28;19912;-59
2023/04/21 07:52:39;;;;;;;;;;;;;;;;;;5052692;28;19944;-59
2023/04/21 07:55:05;;;;;;;;;;;;;;;;;;5061533;28;19940;-59
2023/04/21 07:57:33;;;;;;;;;;;;;;;;;;5050520;28;19924;-59
2023/04/21 07:59:59;;;;;;;;;;;;;;;;;;5047191;28;20372;-59
2023/04/21 08:02:25;;;;;;;;;;;;;;;;;;5055985;28;19964;-59
2023/04/21 08:04:51;;;;;;;;;;;;;;;;;;5058850;28;19909;-59
2023/04/21 08:07:17;;;;;;;;;;;;;;;;;;5049778;28;20007;-59
2023/04/21 08:09:43;;;;;;;;;;;;;;;;;;5050390;28;19919;-59
2023/04/21 08:12:09;;;;;;;;;;;;;;;;;;5048298;28;19976;-59
2023/04/21 08:14:35;;;;;;;;;;;;;;;;;;5059149;28;20447;-59
2023/04/21 08:17:01;;;;;;;;;;;;;;;;;;5066839;28;19967;-59
2023/04/21 08:19:26;;;;;;;;;;;;;;;;;;5054451;28;20058;-59
2023/04/21 08:21:52;;;;;;;;;;;;;;;;;;5051983;28;20424;-59
2023/04/21 08:24:18;;;;;;;;;;;;;;;;;;5051476;28;19916;-59
2023/04/21 08:26:44;;;;;;;;;;;;;;;;;;5047753;28;19916;-59
2023/04/21 08:29:12;;;;;;;;;;;;;;;;;;5052989;28;19917;-58
2023/04/21 08:31:38;;;;;;;;;;;;;;;;;;5050638;28;19909;-59
2023/04/21 08:34:03;;;;;;;;;;;;;;;;;;5050747;28;19965;-59
2023/04/21 08:36:30;;;;;;;;;;;;;;;;;;5051687;28;19917;-58
2023/04/21 08:38:56;;;;;;;;;;;;;;;;;;5052081;28;19973;-59
2023/04/21 08:41:22;;;;;;;;;;;;;;;;;;5050340;28;19995;-59
2023/04/21 08:43:48;;;;;;;;;;;;;;;;;;5049652;28;20346;-58
2023/04/21 08:46:14;;;;;;;;;;;;;;;;;;5053000;28;19935;-58
2023/04/21 08:48:40;;;;;;;;;;;;;;;;;;5050051;28;19919;-58
2023/04/21 08:51:06;;;;;;;;;;;;;;;;;;5048803;28;20308;-58
2023/04/21 08:53:31;;;;;;;;;;;;;;;;;;5051487;28;19943;-58
2023/04/21 08:55:57;;;;;;;;;;;;;;;;;;5055609;28;20007;-59
2023/04/21 08:58:23;;;;;;;;;;;;;;;;;;5049901;28;20573;-59
2023/04/21 09:00:49;;;;;;;;;;;;;;;;;;5048980;28;19967;-59
2023/04/21 09:03:15;;;;;;;;;;;;;;;;;;5047473;28;19917;-59
2023/04/21 09:05:41;;;;;;;;;;;;;;;;;;5054542;28;19956;-58
2023/04/21 09:08:08;;;;;;;;;;;;;;;;;;5049971;28;19923;-59
2023/04/21 09:10:34;;;;;;;;;;;;;;;;;;5050996;28;19917;-59
2023/04/21 09:13:00;;;;;;;;;;;;;;;;;;5047413;28;20501;-59
2023/04/21 09:15:25;;;;;;;;;;;;;;;;;;5065512;28;20003;-59
2023/04/21 09:17:51;;;;;;;;;;;;;;;;;;5065684;28;19916;-59
2023/04/21 09:20:17;;;;;;;;;;;;;;;;;;5064746;28;19919;-59
2023/04/21 09:22:43;;;;;;;;;;;;;;;;;;5060870;28;19956;-59
2023/04/21 09:25:09;;;;;;;;;;;;;;;;;;5052962;28;20292;-59
2023/04/21 09:27:35;;;;;;;;;;;;;;;;;;5054878;28;19909;-59
2023/04/21 09:30:01;;;;;;;;;;;;;;;;;;5059681;28;19955;-58
2023/04/21 09:32:27;;;;;;;;;;;;;;;;;;5058896;28;20062;-59
2023/04/21 09:34:53;;;;;;;;;;;;;;;;;;5056706;28;19913;-58
2023/04/21 09:37:23;;;;;;;;;;;;;;;;;;5059182;28;20360;-59
2023/04/21 09:39:49;;;;;;;;;;;;;;;;;;5051426;28;19959;-58
2023/04/21 09:42:14;;;;;;;;;;;;;;;;;;5065007;28;20372;-59
2023/04/21 09:44:40;;;;;;;;;;;;;;;;;;5053106;28;20027;-59
2023/04/21 09:47:06;;;;;;;;;;;;;;;;;;5054784;28;20061;-59
2023/04/21 09:49:32;;;;;;;;;;;;;;;;;;5051289;28;19937;-58
2023/04/21 09:51:58;;;;;;;;;;;;;;;;;;5059632;28;20334;-59
2023/04/21 09:54:24;;;;;;;;;;;;;;;;;;5057209;28;19966;-59
2023/04/21 09:56:50;;;;;;;;;;;;;;;;;;5052180;28;19952;-58
2023/04/21 09:59:16;;;;;;;;;;;;;;;;;;5053323;28;20004;-58
2023/04/21 10:01:42;;;;;;;;;;;;;;;;;;5052290;28;19919;-56
2023/04/21 10:04:08;;;;;;;;;;;;;;;;;;5047097;28;19952;-59
2023/04/21 10:06:35;;;;;;;;;;;;;;;;;;5056902;28;19966;-59
2023/04/21 10:09:01;;;;;;;;;;;;;;;;;;5065618;28;19919;-58
2023/04/21 10:11:27;;;;;;;;;;;;;;;;;;5055955;28;19928;-59
2023/04/21 10:13:52;;;;;;;;;;;;;;;;;;5052929;28;20013;-58
2023/04/21 10:16:20;;;;;;;;;;;;;;;;;;5050743;28;19917;-58
2023/04/21 10:18:46;;;;;;;;;;;;;;;;;;5052003;28;19986;-58
2023/04/21 10:21:12;;;;;;;;;;;;;;;;;;5051449;28;19986;-59
2023/04/21 10:23:38;;;;;;;;;;;;;;;;;;5056995;28;20398;-58
2023/04/21 10:26:05;;;;;;;;;;;;;;;;;;5052019;28;20003;-58
2023/04/21 10:28:31;;;;;;;;;;;;;;;;;;5053156;28;20023;-58
2023/04/21 10:30:57;;;;;;;;;;;;;;;;;;5052931;28;20401;-59
2023/04/21 10:33:23;;;;;;;;;;;;;;;;;;5052362;28;19912;-58
2023/04/21 10:35:49;;;;;;;;;;;;;;;;;;5048290;28;19975;-58
2023/04/21 10:38:15;;;;;;;;;;;;;;;;;;5051592;28;19916;-58
2023/04/21 10:40:41;;;;;;;;;;;;;;;;;;5056204;28;20276;-58
2023/04/21 10:43:06;;;;;;;;;;;;;;;;;;5055763;28;19967;-58
2023/04/21 10:45:32;;;;;;;;;;;;;;;;;;5063843;28;19977;-58
2023/04/21 10:47:58;;;;;;;;;;;;;;;;;;5052735;28;19909;-58
2023/04/21 10:50:24;;;;;;;;;;;;;;;;;;5049620;28;19924;-58
2023/04/21 10:52:50;;;;;;;;;;;;;;;;;;5051276;28;20361;-58
2023/04/21 10:55:16;;;;;;;;;;;;;;;;;;5031980;28;19956;-58
2023/04/21 10:57:43;;;;;;;;;;;;;;;;;;5043712;28;19916;-58
2023/04/21 11:00:08;;;;;;;;;;;;;;;;;;5051546;28;19909;-58
2023/04/21 11:02:35;;;;;;;;;;;;;;;;;;5047914;28;19941;-59
2023/04/21 11:05:01;;;;;;;;;;;;;;;;;;5051915;28;20383;-59
2023/04/21 11:07:26;;;;;;;;;;;;;;;;;;5053517;28;19917;-58
2023/04/21 11:09:52;;;;;;;;;;;;;;;;;;5046575;28;19959;-58
2023/04/21 11:12:18;;;;;;;;;;;;;;;;;;5051100;28;19924;-59
2023/04/21 11:14:46;;;;;;;;;;;;;;;;;;5047333;28;20422;-58
2023/04/21 11:17:12;;;;;;;;;;;;;;;;;;5051971;28;19909;-59
2023/04/21 11:19:38;;;;;;;;;;;;;;;;;;5051477;28;19967;-59
2023/04/21 11:22:04;;;;;;;;;;;;;;;;;;5051305;28;19920;-59
2023/04/21 11:24:30;;;;;;;;;;;;;;;;;;5051586;28;19960;-59
2023/04/21 11:26:57;;;;;;;;;;;;;;;;;;5050355;28;19959;-58
2023/04/21 11:29:23;;;;;;;;;;;;;;;;;;5049101;28;19917;-59
2023/04/21 11:31:49;;;;;;;;;;;;;;;;;;5050151;28;20317;-59
2023/04/21 11:34:15;;;;;;;;;;;;;;;;;;5050981;28;19917;-59
2023/04/21 11:36:41;;;;;;;;;;;;;;;;;;5051440;28;19913;-58
2023/04/21 11:39:08;;;;;;;;;;;;;;;;;;5056063;28;20027;-58
2023/04/21 11:41:35;;;;;;;;;;;;;;;;;;5051355;28;19951;-58
2023/04/21 11:44:00;;;;;;;;;;;;;;;;;;5048662;28;19913;-59
2023/04/21 11:46:26;;;;;;;;;;;;;;;;;;5050826;28;19971;-59
2023/04/21 11:48:52;;;;;;;;;;;;;;;;;;5050175;28;19916;-59
2023/04/21 11:51:18;;;;;;;;;;;;;;;;;;5050522;28;19944;-58
2023/04/21 11:53:44;;;;;;;;;;;;;;;;;;5048849;28;19921;-58
2023/04/21 11:56:10;;;;;;;;;;;;;;;;;;5047938;28;19913;-59
2023/04/21 11:58:36;;;;;;;;;;;;;;;;;;5054862;28;19917;-58
2023/04/21 12:01:02;;;;;;;;;;;;;;;;;;5047914;28;19947;-64
2023/04/21 12:03:28;;;;;;;;;;;;;;;;;;5043805;28;20015;-64
2023/04/21 12:05:54;;;;;;;;;;;;;;;;;;5055116;28;19916;-64
2023/04/21 12:08:20;;;;;;;;;;;;;;;;;;5063500;28;20419;-64
2023/04/21 12:10:46;;;;;;;;;;;;;;;;;;5047649;28;19917;-63
2023/04/21 12:13:12;;;;;;;;;;;;;;;;;;5053600;28;19956;-63
2023/04/21 12:15:38;;;;;;;;;;;;;;;;;;5052508;28;20000;-62
2023/04/21 12:18:06;;;;;;;;;;;;;;;;;;5048190;28;20470;-64
2023/04/21 12:20:32;;;;;;;;;;;;;;;;;;5047653;28;20039;-63
2023/04/21 12:22:59;;;;;;;;;;;;;;;;;;5053812;28;19951;-63
2023/04/21 12:25:25;;;;;;;;;;;;;;;;;;5048997;28;19935;-64
2023/04/21 12:27:51;;;;;;;;;;;;;;;;;;5060487;28;20384;-63
2023/04/21 12:30:17;;;;;;;;;;;;;;;;;;5066725;28;20008;-63
2023/04/21 12:32:43;;;;;;;;;;;;;;;;;;5040612;28;20384;-64
2023/04/21 12:35:09;;;;;;;;;;;;;;;;;;5045351;28;19967;-63
2023/04/21 12:37:35;;;;;;;;;;;;;;;;;;5050246;28;19982;-64
2023/04/21 12:40:01;;;;;;;;;;;;;;;;;;5048114;28;20394;-63
2023/04/21 12:42:27;;;;;;;;;;;;;;;;;;5047902;28;20328;-63
2023/04/21 12:44:52;;;;;;;;;;;;;;;;;;5049617;28;20007;-63
2023/04/21 12:47:18;;;;;;;;;;;;;;;;;;5057957;28;19943;-63
2023/04/21 12:49:45;;;;;;;;;;;;;;;;;;5048299;28;20339;-64
2023/04/21 12:52:11;;;;;;;;;;;;;;;;;;5051918;28;20264;-61
2023/04/21 12:54:36;;;;;;;;;;;;;;;;;;5057314;28;19948;-63
2023/04/21 12:57:02;;;;;;;;;;;;;;;;;;5054764;28;19948;-63
2023/04/21 12:59:28;;;;;;;;;;;;;;;;;;5054789;28;20318;-63
2023/04/21 13:01:54;;;;;;;;;;;;;;;;;;5060655;28;20000;-63
2023/04/21 13:04:20;;;;;;;;;;;;;;;;;;5053829;28;19912;-63
2023/04/21 13:06:46;;;;;;;;;;;;;;;;;;5045819;28;20484;-63
2023/04/21 13:09:12;;;;;;;;;;;;;;;;;;5049990;28;19932;-63
2023/04/21 13:11:38;;;;;;;;;;;;;;;;;;5052303;28;19972;-63
2023/04/21 13:14:04;;;;;;;;;;;;;;;;;;5054257;28;19913;-63
2023/04/21 13:16:30;;;;;;;;;;;;;;;;;;5053699;28;20327;-63
2023/04/21 13:18:56;;;;;;;;;;;;;;;;;;5053827;28;19956;-63
2023/04/21 13:21:22;;;;;;;;;;;;;;;;;;5048479;28;19947;-64
2023/04/21 13:23:48;;;;;;;;;;;;;;;;;;5056038;28;20088;-63
2023/04/21 13:26:14;;;;;;;;;;;;;;;;;;5052918;28;20511;-63
2023/04/21 13:28:40;;;;;;;;;;;;;;;;;;5056365;28;19935;-63
2023/04/21 13:31:06;;;;;;;;;;;;;;;;;;5039709;28;19944;-63
2023/04/21 13:33:33;;;;;;;;;;;;;;;;;;5049535;28;19923;-63
2023/04/21 13:35:59;;;;;;;;;;;;;;;;;;5040822;28;19921;-63
2023/04/21 13:38:25;;;;;;;;;;;;;;;;;;5053442;28;20428;-63
2023/04/21 13:40:51;;;;;;;;;;;;;;;;;;5053269;28;19948;-63
2023/04/21 13:43:17;;;;;;;;;;;;;;;;;;5052052;28;20008;-63
2023/04/21 13:45:44;;;;;;;;;;;;;;;;;;5053219;28;19912;-63
2023/04/21 13:48:10;;;;;;;;;;;;;;;;;;5054990;28;19936;-63
2023/04/21 13:50:36;;;;;;;;;;;;;;;;;;5050357;28;20682;-64
2023/04/21 13:53:02;;;;;;;;;;;;;;;;;;5058102;28;19966;-63
2023/04/21 13:55:28;;;;;;;;;;;;;;;;;;5049001;28;19959;-64
2023/04/21 13:57:54;;;;;;;;;;;;;;;;;;5060613;28;20003;-63
2023/04/21 14:00:20;;;;;;;;;;;;;;;;;;5056691;28;20474;-63
2023/04/21 14:02:46;;;;;;;;;;;;;;;;;;5051608;28;19951;-63
2023/04/21 14:05:12;;;;;;;;;;;;;;;;;;5047694;28;19964;-63
2023/04/21 14:07:38;;;;;;;;;;;;;;;;;;5052793;28;19944;-63
2023/04/21 14:10:04;;;;;;;;;;;;;;;;;;5052920;28;20011;-63
2023/04/21 14:12:30;;;;;;;;;;;;;;;;;;5051622;28;20012;-63
2023/04/21 14:14:56;;;;;;;;;;;;;;;;;;5051469;28;20032;-63
2023/04/21 14:17:22;;;;;;;;;;;;;;;;;;5051494;28;20011;-63
2023/04/21 14:19:48;;;;;;;;;;;;;;;;;;5048970;28;20373;-63
2023/04/21 14:22:14;;;;;;;;;;;;;;;;;;5038887;28;19983;-63
2023/04/21 14:24:40;;;;;;;;;;;;;;;;;;5051097;28;19923;-63
2023/04/21 14:27:06;;;;;;;;;;;;;;;;;;5052752;28;19924;-63
2023/04/21 14:29:32;;;;;;;;;;;;;;;;;;5052071;28;19913;-63
2023/04/21 14:31:58;;;;;;;;;;;;;;;;;;5053479;28;20062;-63
2023/04/21 14:34:24;;;;;;;;;;;;;;;;;;5048884;28;19948;-63
2023/04/21 14:36:50;;;;;;;;;;;;;;;;;;5051598;28;19913;-63
2023/04/21 14:39:16;;;;;;;;;;;;;;;;;;5052484;28;19927;-63
2023/04/21 14:41:42;;;;;;;;;;;;;;;;;;5052282;28;19964;-63
2023/04/21 14:44:08;;;;;;;;;;;;;;;;;;5047456;28;19952;-63
2023/04/21 14:46:34;;;;;;;;;;;;;;;;;;5051659;28;20293;-63
2023/04/21 14:49:00;;;;;;;;;;;;;;;;;;5048187;28;19967;-63
2023/04/21 14:51:26;;;;;;;;;;;;;;;;;;5055587;28;19964;-62
2023/04/21 14:53:52;;;;;;;;;;;;;;;;;;5052431;28;19940;-62
2023/04/21 14:56:18;;;;;;;;;;;;;;;;;;5051983;28;19920;-62
2023/04/21 14:58:44;;;;;;;;;;;;;;;;;;5048444;28;19924;-62
2023/04/21 15:01:10;;;;;;;;;;;;;;;;;;5048572;28;19948;-63
2023/04/21 15:03:36;;;;;;;;;;;;;;;;;;5047911;28;20011;-63
2023/04/21 15:06:01;;;;;;;;;;;;;;;;;;5042379;28;20345;-63
2023/04/21 15:08:27;;;;;;;;;;;;;;;;;;5046110;28;19913;-63
2023/04/21 15:10:53;;;;;;;;;;;;;;;;;;5054269;28;19959;-63
2023/04/21 15:13:19;;;;;;;;;;;;;;;;;;5056541;28;19960;-63
2023/04/21 15:15:45;;;;;;;;;;;;;;;;;;5055093;28;19975;-63
2023/04/21 15:18:11;;;;;;;;;;;;;;;;;;5053780;28;19966;-63
2023/04/21 15:20:37;;;;;;;;;;;;;;;;;;5050300;28;20431;-63
2023/04/21 15:23:03;;;;;;;;;;;;;;;;;;5052348;28;20306;-63
2023/04/21 15:25:29;;;;;;;;;;;;;;;;;;5050446;28;19959;-63
2023/04/21 15:27:55;;;;;;;;;;;;;;;;;;5071716;28;19987;-63
2023/04/21 15:30:21;;;;;;;;;;;;;;;;;;5065525;28;19912;-63
2023/04/21 15:32:47;;;;;;;;;;;;;;;;;;5052921;28;20008;-63
2023/04/21 15:35:13;;;;;;;;;;;;;;;;;;5044461;28;19920;-62
2023/04/21 15:37:39;;;;;;;;;;;;;;;;;;5047530;28;19964;-62
2023/04/21 15:40:05;;;;;;;;;;;;;;;;;;5045469;28;19919;-62
2023/04/21 15:42:30;;;;;;;;;;;;;;;;;;5042053;28;19940;-63
2023/04/21 15:44:56;;;;;;;;;;;;;;;;;;5048690;28;19959;-63
2023/04/21 15:47:22;;;;;;;;;;;;;;;;;;5045184;28;20318;-62
2023/04/21 15:49:48;;;;;;;;;;;;;;;;;;5051175;28;19967;-63
2023/04/21 15:52:14;;;;;;;;;;;;;;;;;;5058891;28;19952;-63
2023/04/21 15:54:40;;;;;;;;;;;;;;;;;;5048415;28;19916;-63
2023/04/21 15:57:06;;;;;;;;;;;;;;;;;;5049526;28;20008;-62
2023/04/21 15:59:32;;;;;;;;;;;;;;;;;;5052796;28;20051;-63
2023/04/21 16:01:58;;;;;;;;;;;;;;;;;;5051276;28;19951;-62
2023/04/21 16:04:24;;;;;;;;;;;;;;;;;;5049752;28;19913;-62
2023/04/21 16:06:50;;;;;;;;;;;;;;;;;;5049609;28;19919;-62
2023/04/21 16:09:16;;;;;;;;;;;;;;;;;;5051923;28;20291;-62
2023/04/21 16:11:42;;;;;;;;;;;;;;;;;;5054533;28;19921;-62
2023/04/21 16:14:08;;;;;;;;;;;;;;;;;;5048787;28;19963;-62
2023/04/21 16:16:37;;;;;;;;;;;;;;;;;;5051212;28;19963;-62
2023/04/21 16:19:03;;;;;;;;;;;;;;;;;;5046413;28;19917;-62
2023/04/21 16:21:29;;;;;;;;;;;;;;;;;;5045673;28;19944;-62
2023/04/21 16:23:55;;;;;;;;;;;;;;;;;;5049125;28;19924;-62
2023/04/21 16:26:21;;;;;;;;;;;;;;;;;;5063376;28;20433;-62
2023/04/21 16:28:47;;;;;;;;;;;;;;;;;;5052901;28;20043;-62
2023/04/21 16:31:13;;;;;;;;;;;;;;;;;;5054028;28;20007;-62
2023/04/21 16:33:39;;;;;;;;;;;;;;;;;;5051165;28;20341;-62
2023/04/21 16:36:05;;;;;;;;;;;;;;;;;;5035922;28;19920;-62